Keene, Ohio
Current Conditions -  °F | °C
As of 5:24 PM on Friday 31 Oct 2014 (Local Time) from KPHD Reporting Station
Light Rain Light Rain  
Wind Chill: 44°   Ceiling: 2500
Heat Index: 46°   Visibility: 9mi
Dew Point: 41°   Wind: 5mph
Humidity: 83%   Direction: 140°SE
Pressure: 29.86"   Gusts: NA
Location:  40.35°N, 81.87°W
Report Text: KPHD 312124Z AUTO 14004KT 9SM -RA SCT015 BKN025 OVC041 08/05 A2986 RMK AO2 P0000 T00780050
Loading
Personal Weather Stations






























Interactive Weather Map
Tropical Storm Tracking
New forecast layout! Learn more

10-Day Weather Forecast

Advertisements
Track Severe Weather on mobile